createdAt,value
2019-06-15T00:02:23.556Z,13.00
2019-06-15T00:04:55.501Z,13.30
2019-06-15T00:07:27.465Z,9.93
2019-06-15T00:09:59.484Z,10.60
2019-06-15T00:12:31.440Z,11.33
2019-06-15T00:15:04.529Z,10.07
2019-06-15T00:17:36.500Z,20.20
2019-06-15T00:21:06.506Z,14.13
2019-06-15T00:27:34.748Z,12.60
2019-06-15T00:30:09.917Z,15.57
2019-06-15T00:33:15.161Z,13.50
2019-06-15T00:35:47.102Z,11.20
2019-06-15T00:38:19.076Z,16.00
2019-06-15T00:40:51.402Z,13.63
2019-06-15T01:03:16.892Z,11.00
2019-06-15T01:05:48.835Z,13.47
2019-06-15T01:09:09.626Z,13.87
2019-06-15T01:12:35.326Z,11.73
2019-06-15T03:36:42.150Z,19.40
2019-06-15T03:39:18.200Z,13.00
2019-06-15T03:41:50.477Z,14.70
2019-06-15T03:44:22.916Z,13.03
2019-06-15T03:46:55.372Z,11.10
2019-06-15T05:57:38.894Z,6.60
2019-06-15T07:08:58.861Z,6.87
2019-06-15T07:11:31.219Z,7.33
2019-06-15T07:14:03.365Z,2.73
2019-06-15T07:16:35.321Z,3.00
2019-06-15T07:19:07.314Z,3.70
2019-06-15T07:21:39.264Z,3.57
2019-06-15T07:24:11.522Z,3.10
2019-06-15T07:26:43.637Z,4.93
2019-06-15T07:29:15.902Z,2.50
2019-06-15T07:31:48.353Z,10.90
2019-06-15T07:34:20.502Z,9.83
2019-06-15T07:36:52.489Z,4.80
2019-06-15T07:39:25.554Z,3.10
2019-06-15T07:41:57.499Z,6.60
2019-06-15T07:44:29.958Z,9.93
2019-06-15T07:47:03.046Z,4.97
2019-06-15T07:49:34.981Z,5.63
2019-06-15T07:52:07.257Z,6.73
2019-06-15T07:54:39.682Z,10.10
2019-06-15T07:57:11.806Z,1.90
2019-06-15T07:59:43.829Z,4.73
2019-06-15T08:02:15.769Z,3.10
2019-06-15T08:04:47.752Z,2.97
2019-06-15T08:07:19.741Z,2.90
2019-06-15T08:09:51.805Z,6.33
2019-06-15T08:12:24.705Z,5.13
2019-06-15T08:14:56.990Z,4.93
2019-06-15T08:17:29.434Z,4.57
2019-06-15T08:20:01.691Z,4.27
2019-06-15T08:22:33.630Z,2.43
2019-06-15T08:25:08.638Z,2.13
2019-06-15T08:27:40.971Z,1.90
2019-06-15T08:30:14.354Z,3.53
2019-06-15T08:32:46.622Z,1.50
2019-06-15T08:35:19.534Z,3.93
2019-06-15T08:37:52.420Z,2.10
2019-06-15T08:40:26.674Z,4.07
2019-06-15T08:42:58.813Z,2.73
2019-06-15T08:45:32.106Z,2.73
2019-06-15T08:48:06.377Z,7.53
2019-06-15T08:50:39.356Z,7.03
2019-06-15T08:53:11.307Z,4.53
2019-06-15T08:55:43.246Z,7.53
2019-06-15T08:58:15.185Z,7.63
2019-06-15T09:00:47.442Z,3.70
2019-06-15T09:03:19.652Z,5.60
2019-06-15T09:05:55.776Z,3.83
2019-06-15T09:08:28.768Z,3.27
2019-06-15T09:11:00.711Z,5.13
2019-06-15T09:13:32.751Z,1.77
2019-06-15T09:16:06.024Z,3.60
2019-06-15T09:18:38.298Z,1.53
2019-06-15T09:21:10.492Z,15.43
2019-06-15T09:23:42.918Z,3.27
2019-06-15T09:26:15.050Z,2.23
2019-06-15T09:28:46.993Z,3.30
2019-06-15T09:31:19.290Z,2.20
2019-06-15T09:33:51.413Z,2.90
2019-06-15T09:36:23.362Z,2.30
2019-06-15T09:38:55.300Z,3.20
2019-06-15T09:41:28.245Z,1.37
2019-06-15T09:44:00.179Z,2.63
2019-06-15T09:46:32.127Z,1.63
2019-06-15T09:49:04.074Z,3.43
2019-06-15T09:51:36.339Z,6.33
2019-06-15T09:54:08.467Z,1.77
2019-06-15T09:56:40.420Z,3.20
2019-06-15T09:59:25.286Z,1.60
2019-06-15T10:01:46.318Z,4.10
2019-06-15T10:04:19.186Z,1.60
2019-06-15T10:06:51.174Z,1.47
2019-06-15T10:09:23.118Z,7.33
2019-06-15T10:11:55.066Z,2.03
2019-06-15T10:14:26.998Z,2.10
2019-06-15T10:16:58.955Z,6.13
2019-06-15T10:19:30.894Z,2.13
2019-06-15T10:22:02.855Z,1.40
2019-06-15T10:24:35.113Z,1.47
2019-06-15T10:27:07.474Z,3.33
2019-06-15T10:29:42.325Z,3.90
2019-06-15T10:32:13.071Z,4.70
2019-06-15T10:34:45.019Z,2.70
2019-06-15T10:37:16.962Z,2.87
2019-06-15T10:39:48.918Z,1.63
2019-06-15T10:42:22.774Z,4.07
2019-06-15T10:44:54.544Z,3.70
2019-06-15T10:47:27.431Z,1.27
2019-06-15T10:49:59.371Z,4.10
2019-06-15T10:52:31.660Z,4.00
2019-06-15T10:55:05.414Z,0.70
2019-06-15T10:57:38.319Z,0.90
2019-06-15T11:00:12.653Z,1.60
2019-06-15T11:02:44.767Z,2.73
2019-06-15T11:05:21.638Z,1.80
2019-06-15T11:07:53.767Z,3.63
2019-06-15T11:10:38.966Z,1.20
2019-06-15T11:13:11.908Z,1.43
2019-06-15T11:15:45.591Z,2.63
2019-06-15T11:18:18.062Z,1.00
2019-06-15T11:20:51.527Z,2.87
2019-06-15T11:23:24.162Z,1.43
2019-06-15T11:25:56.106Z,1.63
2019-06-15T11:28:28.054Z,1.50
2019-06-15T11:30:59.990Z,2.30
2019-06-15T11:33:31.947Z,1.53
2019-06-15T11:36:04.183Z,1.40
2019-06-15T11:38:36.158Z,1.37
2019-06-15T11:41:08.119Z,1.37
2019-06-15T11:43:40.071Z,1.50
2019-06-15T11:46:12.006Z,1.30
2019-06-15T11:48:43.983Z,5.33
2019-06-15T11:51:16.066Z,0.90
2019-06-15T11:53:48.010Z,1.60
2019-06-15T11:56:19.950Z,2.93
2019-06-15T11:58:51.918Z,3.07
2019-06-15T12:01:23.874Z,1.00
2019-06-15T12:03:56.148Z,1.33
2019-06-15T12:06:28.258Z,0.93
2019-06-15T12:09:01.298Z,0.97
2019-06-15T12:11:35.161Z,3.47
2019-06-15T12:14:07.286Z,1.13
2019-06-15T12:16:40.538Z,1.93
2019-06-15T12:19:12.670Z,3.07
2019-06-15T12:21:44.594Z,1.53
2019-06-15T12:24:16.550Z,1.30
2019-06-15T12:26:48.487Z,1.13
2019-06-15T12:29:20.454Z,4.00
2019-06-15T12:31:52.440Z,1.20
2019-06-15T12:34:24.494Z,1.00
2019-06-15T12:36:56.677Z,0.90
2019-06-15T12:39:28.959Z,5.07
2019-06-15T12:42:01.090Z,0.80
2019-06-15T12:44:34.075Z,0.90
2019-06-15T12:47:06.043Z,10.60
2019-06-15T12:49:38.019Z,1.07
2019-06-15T12:52:10.021Z,1.10
2019-06-15T12:54:41.982Z,0.93
2019-06-15T12:57:14.087Z,1.10
2019-06-15T12:59:46.111Z,0.80
2019-06-15T13:02:19.658Z,0.90
2019-06-15T13:04:51.715Z,2.70
2019-06-15T13:07:23.651Z,4.00
2019-06-15T13:09:56.671Z,3.00
2019-06-15T13:12:28.617Z,13.03
2019-06-15T13:15:00.881Z,1.33
2019-06-15T13:17:33.383Z,1.13
2019-06-15T13:20:07.433Z,6.73
2019-06-15T13:22:39.392Z,2.83
2019-06-15T13:25:11.320Z,1.07
2019-06-15T13:27:43.587Z,4.53
2019-06-15T13:30:22.834Z,1.30
2019-06-15T13:32:55.082Z,1.00
2019-06-15T13:35:27.225Z,3.63
2019-06-15T13:37:59.156Z,1.57
2019-06-15T13:40:31.113Z,4.43
2019-06-15T13:43:03.051Z,0.80
2019-06-15T13:45:35.007Z,1.53
2019-06-15T13:48:07.150Z,2.00
2019-06-15T13:50:39.167Z,1.20
2019-06-15T13:53:11.112Z,0.90
2019-06-15T13:55:44.307Z,2.03
2019-06-15T13:58:16.438Z,1.57
2019-06-15T14:00:48.455Z,1.10
2019-06-15T14:03:20.391Z,1.10
2019-06-15T14:05:52.333Z,1.00
2019-06-15T14:08:24.255Z,3.67
2019-06-15T14:10:56.527Z,1.73
2019-06-15T14:13:28.643Z,11.73
2019-06-15T14:16:01.021Z,1.70
2019-06-15T14:18:33.143Z,1.27
2019-06-15T14:21:05.405Z,2.00
2019-06-15T14:23:37.341Z,1.80
2019-06-15T14:26:09.319Z,2.93
2019-06-15T14:28:41.268Z,1.10
2019-06-15T14:31:13.236Z,1.30
2019-06-15T14:33:45.167Z,1.47
2019-06-15T14:36:17.115Z,0.90
2019-06-15T14:38:51.645Z,1.80
2019-06-15T14:41:23.877Z,1.43
2019-06-15T14:43:56.511Z,1.10
2019-06-15T14:46:29.015Z,1.20
2019-06-15T14:49:02.027Z,2.10
2019-06-15T14:51:34.957Z,3.80
2019-06-15T14:54:07.207Z,1.67
2019-06-15T14:56:40.331Z,2.67
2019-06-15T14:59:13.283Z,2.60
2019-06-15T15:01:47.046Z,3.03
2019-06-15T15:04:19.263Z,2.70
2019-06-15T15:06:51.538Z,2.60
2019-06-15T15:09:23.691Z,1.93
2019-06-15T15:11:56.556Z,1.10
2019-06-15T15:14:28.496Z,1.67
2019-06-15T15:17:00.435Z,1.10
2019-06-15T15:19:32.479Z,0.93
2019-06-15T15:22:04.423Z,0.80
2019-06-15T15:24:36.387Z,2.27
2019-06-15T15:27:09.424Z,1.80
2019-06-15T15:29:41.807Z,3.90
2019-06-15T15:32:25.179Z,1.23
2019-06-15T15:34:47.379Z,1.73
2019-06-15T15:37:19.393Z,2.60
2019-06-15T15:39:51.329Z,2.37
2019-06-15T15:42:27.636Z,1.30
2019-06-15T15:45:07.082Z,1.37
2019-06-15T15:47:36.943Z,2.50
2019-06-15T15:50:10.197Z,3.10
2019-06-15T15:52:43.439Z,4.30
2019-06-15T15:55:17.503Z,3.80
2019-06-15T15:57:49.359Z,2.50
2019-06-15T16:00:33.841Z,5.20
2019-06-15T16:03:07.101Z,2.80
2019-06-15T16:05:39.560Z,9.03
2019-06-15T16:08:11.542Z,2.83
2019-06-15T16:10:46.008Z,1.73
2019-06-15T16:13:17.180Z,1.50
2019-06-15T16:15:49.437Z,1.40
2019-06-15T16:18:21.589Z,4.10
2019-06-15T16:20:53.515Z,1.40
2019-06-15T16:23:25.481Z,2.20
2019-06-15T16:25:57.907Z,1.10
2019-06-15T16:28:31.003Z,4.87
2019-06-15T16:31:10.251Z,0.90
2019-06-15T16:33:38.079Z,1.10
2019-06-15T16:36:10.013Z,1.20
2019-06-15T16:38:41.974Z,2.20
2019-06-15T16:41:13.924Z,2.83
2019-06-15T16:43:46.260Z,2.00
2019-06-15T16:46:18.206Z,3.33
2019-06-15T16:48:50.255Z,3.03
2019-06-15T16:51:22.497Z,3.50
2019-06-15T16:53:56.895Z,1.87
2019-06-15T16:56:28.592Z,1.40
2019-06-15T16:59:00.897Z,2.20
2019-06-15T17:01:32.893Z,1.60
2019-06-15T17:04:06.126Z,2.07
2019-06-15T17:06:40.843Z,5.63
2019-06-15T17:09:13.152Z,3.77
2019-06-15T17:11:47.180Z,1.30
2019-06-15T17:14:18.723Z,3.43
2019-06-15T17:16:50.676Z,4.50
2019-06-15T17:19:22.927Z,2.60
2019-06-15T17:21:58.156Z,5.70
2019-06-15T17:24:29.071Z,0.90
2019-06-15T17:27:01.223Z,1.50
2019-06-15T17:29:33.435Z,1.67
2019-06-15T17:32:06.335Z,5.50
2019-06-15T17:34:37.727Z,1.90
2019-06-15T17:37:09.047Z,1.87
2019-06-15T17:39:41.772Z,1.53
2019-06-15T17:42:16.272Z,1.43
2019-06-15T17:44:47.643Z,1.37
2019-06-15T17:47:19.591Z,1.30
2019-06-15T17:49:51.540Z,1.23
2019-06-15T17:52:26.494Z,1.50
2019-06-15T17:54:58.464Z,1.20
2019-06-15T17:57:30.450Z,2.20
2019-06-15T18:00:02.910Z,2.10
2019-06-15T18:02:38.108Z,1.20
2019-06-15T18:05:09.468Z,1.63
2019-06-15T18:07:41.428Z,1.30
2019-06-15T18:10:15.918Z,1.73
2019-06-15T18:12:48.953Z,1.50
2019-06-15T18:15:21.752Z,1.50
2019-06-15T18:17:54.347Z,1.37
2019-06-15T18:20:30.052Z,1.53
2019-06-15T18:23:02.130Z,2.13
2019-06-15T18:25:34.132Z,2.40
2019-06-15T18:28:09.141Z,4.17
2019-06-15T18:30:41.063Z,1.30
2019-06-15T18:33:16.317Z,1.10
2019-06-15T18:35:48.499Z,3.17
2019-06-15T18:38:20.459Z,0.97
2019-06-15T18:40:52.405Z,1.37
2019-06-15T18:43:26.215Z,1.40
2019-06-15T18:45:58.531Z,1.43
2019-06-15T18:48:30.750Z,1.10
2019-06-15T18:51:02.655Z,1.83
2019-06-15T18:53:38.940Z,1.60
2019-06-15T18:56:08.812Z,2.83
2019-06-15T18:58:41.446Z,1.93
2019-06-15T19:01:16.352Z,1.80
2019-06-15T19:03:50.335Z,3.60
2019-06-15T19:06:22.275Z,5.53
2019-06-15T19:08:54.304Z,2.40
2019-06-15T19:11:27.315Z,10.53
2019-06-15T19:13:59.667Z,3.93
2019-06-15T19:16:32.597Z,1.50
2019-06-15T19:19:04.573Z,2.00
2019-06-15T19:21:36.508Z,2.07
2019-06-15T19:24:08.788Z,1.83
2019-06-15T19:26:41.123Z,1.70
2019-06-15T19:29:13.203Z,1.80
2019-06-15T19:31:46.775Z,5.93
2019-06-15T19:34:18.826Z,1.93
2019-06-15T19:36:50.831Z,1.50
2019-06-15T19:39:22.928Z,3.87
2019-06-15T19:41:56.306Z,1.77
2019-06-15T19:44:28.438Z,1.57
2019-06-15T19:47:00.574Z,1.60
2019-06-15T19:49:32.515Z,1.80
2019-06-15T19:52:06.475Z,1.10
2019-06-15T19:54:38.321Z,5.07
2019-06-15T19:57:10.248Z,3.00
2019-06-15T19:59:42.219Z,1.50
2019-06-15T20:02:16.339Z,1.47
2019-06-15T20:04:59.347Z,2.13
2019-06-15T20:07:21.440Z,2.00
2019-06-15T20:09:53.400Z,3.90
2019-06-15T20:12:26.511Z,1.70
2019-06-15T20:14:58.748Z,1.90
2019-06-15T20:17:30.694Z,3.60
2019-06-15T20:20:02.828Z,2.50
2019-06-15T20:22:37.301Z,1.80
2019-06-15T20:25:08.679Z,3.40
2019-06-15T20:27:40.928Z,1.50
2019-06-15T20:30:13.579Z,1.80
2019-06-15T20:32:46.256Z,1.90
2019-06-15T20:35:21.364Z,1.47
2019-06-15T20:37:52.487Z,2.23
2019-06-15T20:40:26.749Z,1.30
2019-06-15T20:42:58.288Z,2.00
2019-06-15T20:45:31.584Z,2.10
2019-06-15T20:48:03.792Z,2.23
2019-06-15T20:50:36.346Z,1.90
2019-06-15T20:53:08.328Z,1.73
2019-06-15T20:55:40.276Z,2.00
2019-06-15T20:58:12.530Z,3.53
2019-06-15T21:00:47.425Z,3.03
2019-06-15T21:03:18.604Z,1.40
2019-06-15T21:05:50.740Z,1.70
2019-06-15T21:08:23.044Z,1.57
2019-06-15T21:10:56.424Z,2.23
2019-06-15T21:13:28.876Z,2.00
2019-06-15T21:16:00.996Z,2.00
2019-06-15T21:18:34.056Z,1.70
2019-06-15T21:21:06.894Z,2.17
2019-06-15T21:23:40.930Z,1.90
2019-06-15T21:26:13.224Z,2.70
2019-06-15T21:28:45.657Z,1.50
2019-06-15T21:31:17.808Z,4.03
2019-06-15T21:33:49.758Z,1.63
2019-06-15T21:36:21.714Z,3.80
2019-06-15T21:38:56.125Z,1.70
2019-06-15T21:41:27.301Z,1.80
2019-06-15T21:44:02.200Z,2.10
2019-06-15T21:46:36.182Z,2.50
2019-06-15T21:49:08.353Z,2.70
2019-06-15T21:51:41.393Z,2.40
2019-06-15T21:54:15.792Z,2.47
2019-06-15T21:56:47.141Z,5.63
2019-06-15T21:59:19.106Z,3.10
2019-06-15T22:01:51.336Z,2.60
2019-06-15T22:04:25.790Z,3.87
2019-06-15T22:06:56.944Z,3.97
2019-06-15T22:09:28.876Z,2.30
2019-06-15T22:12:01.510Z,2.20
2019-06-15T22:14:33.632Z,3.37
2019-06-15T22:17:07.276Z,5.30
2019-06-15T22:19:39.216Z,6.07
2019-06-15T22:22:12.128Z,3.50
2019-06-15T22:24:44.073Z,2.37
2019-06-15T22:27:17.031Z,3.73
2019-06-15T22:29:49.454Z,3.70
2019-06-15T22:32:21.596Z,5.07
2019-06-15T22:34:53.545Z,2.33
2019-06-15T22:37:26.352Z,3.73
2019-06-15T22:39:58.342Z,2.87
2019-06-15T22:42:30.315Z,6.93
2019-06-15T22:45:02.244Z,10.87
2019-06-15T22:47:36.153Z,4.03
2019-06-15T22:50:09.584Z,5.30
2019-06-15T22:52:41.540Z,2.73
2019-06-15T22:55:13.561Z,3.77
2019-06-15T22:57:46.319Z,3.00
2019-06-15T23:00:19.562Z,2.70
2019-06-15T23:02:53.281Z,4.20
2019-06-15T23:05:26.331Z,2.87
2019-06-15T23:07:58.564Z,5.43
2019-06-15T23:10:30.501Z,4.80
2019-06-15T23:13:02.466Z,4.77
2019-06-15T23:15:36.994Z,3.00
2019-06-15T23:18:08.361Z,9.03
2019-06-15T23:20:40.809Z,3.73
2019-06-15T23:23:12.921Z,4.33
2019-06-15T23:25:47.029Z,5.40
2019-06-15T23:28:18.537Z,3.80
2019-06-15T23:30:52.343Z,9.43
2019-06-15T23:33:26.543Z,3.50
2019-06-15T23:36:00.383Z,4.33
2019-06-15T23:38:32.841Z,4.37
2019-06-15T23:41:06.990Z,5.10
2019-06-15T23:43:38.900Z,7.00
2019-06-15T23:46:10.860Z,4.37
2019-06-15T23:48:42.825Z,5.83
2019-06-15T23:51:17.008Z,5.30
2019-06-15T23:53:48.724Z,4.30
2019-06-15T23:56:21.164Z,4.63
2019-06-15T23:58:55.871Z,5.63
